sensor_id;sensor_type;location;lat;lon;timestamp;P1;durP1;ratioP1;P2;durP2;ratioP2
12112;SDS011;6120;52.250;8.478;2023-10-09T00:01:37;3.15;;;1.40;;
12112;SDS011;6120;52.250;8.478;2023-10-09T00:04:04;4.20;;;1.77;;
12112;SDS011;6120;52.250;8.478;2023-10-09T00:06:37;4.15;;;1.75;;
12112;SDS011;6120;52.250;8.478;2023-10-09T00:09:04;5.65;;;1.90;;
12112;SDS011;6120;52.250;8.478;2023-10-09T00:11:38;5.05;;;1.65;;
12112;SDS011;6120;52.250;8.478;2023-10-09T00:14:08;3.88;;;2.00;;
12112;SDS011;6120;52.250;8.478;2023-10-09T00:16:34;5.50;;;1.55;;
12112;SDS011;6120;52.250;8.478;2023-10-09T00:19:02;5.05;;;1.80;;
12112;SDS011;6120;52.250;8.478;2023-10-09T00:21:41;5.32;;;1.95;;
12112;SDS011;6120;52.250;8.478;2023-10-09T00:24:08;5.95;;;1.95;;
12112;SDS011;6120;52.250;8.478;2023-10-09T00:26:40;3.45;;;2.03;;
12112;SDS011;6120;52.250;8.478;2023-10-09T00:29:15;4.57;;;2.00;;
12112;SDS011;6120;52.250;8.478;2023-10-09T00:31:51;2.95;;;1.35;;
12112;SDS011;6120;52.250;8.478;2023-10-09T00:34:39;4.90;;;2.00;;
12112;SDS011;6120;52.250;8.478;2023-10-09T00:37:10;4.03;;;2.00;;
12112;SDS011;6120;52.250;8.478;2023-10-09T00:39:43;4.95;;;2.17;;
12112;SDS011;6120;52.250;8.478;2023-10-09T00:42:11;4.10;;;2.10;;
12112;SDS011;6120;52.250;8.478;2023-10-09T00:44:39;4.28;;;2.00;;
12112;SDS011;6120;52.250;8.478;2023-10-09T00:47:14;5.45;;;2.05;;
12112;SDS011;6120;52.250;8.478;2023-10-09T00:49:57;5.50;;;2.15;;
12112;SDS011;6120;52.250;8.478;2023-10-09T00:52:30;4.75;;;2.22;;
12112;SDS011;6120;52.250;8.478;2023-10-09T00:54:59;4.68;;;1.83;;
12112;SDS011;6120;52.250;8.478;2023-10-09T00:57:48;5.45;;;1.92;;
12112;SDS011;6120;52.250;8.478;2023-10-09T01:00:26;4.75;;;2.20;;
12112;SDS011;6120;52.250;8.478;2023-10-09T01:03:12;6.72;;;2.47;;
12112;SDS011;6120;52.250;8.478;2023-10-09T01:05:47;4.97;;;2.17;;
12112;SDS011;6120;52.250;8.478;2023-10-09T01:08:19;6.53;;;2.60;;
12112;SDS011;6120;52.250;8.478;2023-10-09T01:10:55;4.20;;;1.95;;
12112;SDS011;6120;52.250;8.478;2023-10-09T01:13:23;3.87;;;1.80;;
12112;SDS011;6120;52.250;8.478;2023-10-09T01:16:05;5.45;;;2.20;;
12112;SDS011;6120;52.250;8.478;2023-10-09T01:18:33;6.63;;;3.28;;
12112;SDS011;6120;52.250;8.478;2023-10-09T01:21:04;6.03;;;2.00;;
12112;SDS011;6120;52.250;8.478;2023-10-09T01:23:31;5.22;;;1.95;;
12112;SDS011;6120;52.250;8.478;2023-10-09T01:25:58;5.88;;;2.08;;
12112;SDS011;6120;52.250;8.478;2023-10-09T01:28:24;3.97;;;2.08;;
12112;SDS011;6120;52.250;8.478;2023-10-09T01:30:52;4.75;;;2.28;;
12112;SDS011;6120;52.250;8.478;2023-10-09T01:33:21;3.95;;;1.80;;
12112;SDS011;6120;52.250;8.478;2023-10-09T01:35:49;5.07;;;2.00;;
12112;SDS011;6120;52.250;8.478;2023-10-09T01:38:25;5.57;;;2.78;;
12112;SDS011;6120;52.250;8.478;2023-10-09T01:41:07;6.40;;;2.30;;
12112;SDS011;6120;52.250;8.478;2023-10-09T01:43:42;4.60;;;2.00;;
12112;SDS011;6120;52.250;8.478;2023-10-09T01:46:11;4.50;;;2.10;;
12112;SDS011;6120;52.250;8.478;2023-10-09T01:48:38;4.90;;;2.33;;
12112;SDS011;6120;52.250;8.478;2023-10-09T01:51:06;6.68;;;2.75;;
12112;SDS011;6120;52.250;8.478;2023-10-09T01:53:39;7.00;;;2.45;;
12112;SDS011;6120;52.250;8.478;2023-10-09T01:56:11;9.25;;;2.58;;
12112;SDS011;6120;52.250;8.478;2023-10-09T01:58:44;4.30;;;2.00;;
12112;SDS011;6120;52.250;8.478;2023-10-09T02:01:13;6.13;;;2.65;;
12112;SDS011;6120;52.250;8.478;2023-10-09T02:03:41;4.40;;;2.40;;
12112;SDS011;6120;52.250;8.478;2023-10-09T02:06:09;6.45;;;2.90;;
12112;SDS011;6120;52.250;8.478;2023-10-09T02:08:53;9.40;;;2.70;;
12112;SDS011;6120;52.250;8.478;2023-10-09T02:11:20;6.25;;;3.28;;
12112;SDS011;6120;52.250;8.478;2023-10-09T02:14:05;7.57;;;3.10;;
12112;SDS011;6120;52.250;8.478;2023-10-09T02:16:48;6.13;;;3.00;;
12112;SDS011;6120;52.250;8.478;2023-10-09T02:19:34;6.60;;;3.42;;
12112;SDS011;6120;52.250;8.478;2023-10-09T02:22:01;5.45;;;2.67;;
12112;SDS011;6120;52.250;8.478;2023-10-09T02:24:42;8.70;;;2.83;;
12112;SDS011;6120;52.250;8.478;2023-10-09T02:27:24;8.05;;;3.40;;
12112;SDS011;6120;52.250;8.478;2023-10-09T02:30:11;8.02;;;3.75;;
12112;SDS011;6120;52.250;8.478;2023-10-09T02:32:56;12.30;;;4.28;;
12112;SDS011;6120;52.250;8.478;2023-10-09T02:35:33;9.60;;;4.30;;
12112;SDS011;6120;52.250;8.478;2023-10-09T02:38:08;10.32;;;4.68;;
12112;SDS011;6120;52.250;8.478;2023-10-09T02:40:41;15.35;;;6.00;;
12112;SDS011;6120;52.250;8.478;2023-10-09T02:43:42;12.02;;;5.43;;
12112;SDS011;6120;52.250;8.478;2023-10-09T02:46:21;13.13;;;5.35;;
12112;SDS011;6120;52.250;8.478;2023-10-09T02:48:57;16.10;;;6.55;;
12112;SDS011;6120;52.250;8.478;2023-10-09T02:51:25;17.10;;;6.70;;
12112;SDS011;6120;52.250;8.478;2023-10-09T02:53:56;18.95;;;7.65;;
12112;SDS011;6120;52.250;8.478;2023-10-09T02:56:24;23.77;;;8.68;;
12112;SDS011;6120;52.250;8.478;2023-10-09T02:59:07;21.05;;;8.43;;
12112;SDS011;6120;52.250;8.478;2023-10-09T03:01:37;14.48;;;7.45;;
12112;SDS011;6120;52.250;8.478;2023-10-09T03:04:05;19.02;;;9.02;;
12112;SDS011;6120;52.250;8.478;2023-10-09T03:06:32;24.35;;;9.32;;
12112;SDS011;6120;52.250;8.478;2023-10-09T03:09:04;20.52;;;8.60;;
12112;SDS011;6120;52.250;8.478;2023-10-09T03:11:46;26.98;;;11.02;;
12112;SDS011;6120;52.250;8.478;2023-10-09T03:14:22;19.00;;;8.77;;
12112;SDS011;6120;52.250;8.478;2023-10-09T03:16:52;21.33;;;9.70;;
12112;SDS011;6120;52.250;8.478;2023-10-09T03:19:19;23.20;;;9.93;;
12112;SDS011;6120;52.250;8.478;2023-10-09T03:21:46;25.35;;;10.27;;
12112;SDS011;6120;52.250;8.478;2023-10-09T03:24:13;23.88;;;9.88;;
12112;SDS011;6120;52.250;8.478;2023-10-09T03:26:40;21.25;;;10.02;;
12112;SDS011;6120;52.250;8.478;2023-10-09T03:29:06;28.55;;;11.10;;
12112;SDS011;6120;52.250;8.478;2023-10-09T03:31:36;22.20;;;10.38;;
12112;SDS011;6120;52.250;8.478;2023-10-09T03:34:04;32.28;;;12.20;;
12112;SDS011;6120;52.250;8.478;2023-10-09T03:36:33;31.52;;;13.40;;
12112;SDS011;6120;52.250;8.478;2023-10-09T03:39:05;26.45;;;12.05;;
12112;SDS011;6120;52.250;8.478;2023-10-09T03:41:51;26.73;;;12.35;;
12112;SDS011;6120;52.250;8.478;2023-10-09T03:44:20;25.30;;;11.30;;
12112;SDS011;6120;52.250;8.478;2023-10-09T03:46:48;26.23;;;12.35;;
12112;SDS011;6120;52.250;8.478;2023-10-09T03:49:17;21.52;;;11.82;;
12112;SDS011;6120;52.250;8.478;2023-10-09T03:51:49;28.80;;;12.02;;
12112;SDS011;6120;52.250;8.478;2023-10-09T03:54:17;29.35;;;13.15;;
12112;SDS011;6120;52.250;8.478;2023-10-09T03:56:47;28.35;;;12.88;;
12112;SDS011;6120;52.250;8.478;2023-10-09T03:59:17;23.63;;;10.45;;
12112;SDS011;6120;52.250;8.478;2023-10-09T04:01:49;30.23;;;12.82;;
12112;SDS011;6120;52.250;8.478;2023-10-09T04:04:19;31.42;;;12.32;;
12112;SDS011;6120;52.250;8.478;2023-10-09T04:06:49;36.20;;;15.20;;
12112;SDS011;6120;52.250;8.478;2023-10-09T04:09:17;34.17;;;14.27;;
12112;SDS011;6120;52.250;8.478;2023-10-09T04:11:45;29.70;;;12.80;;
12112;SDS011;6120;52.250;8.478;2023-10-09T04:14:23;31.13;;;14.18;;
12112;SDS011;6120;52.250;8.478;2023-10-09T04:16:58;30.63;;;14.20;;
12112;SDS011;6120;52.250;8.478;2023-10-09T04:19:35;31.50;;;14.20;;
12112;SDS011;6120;52.250;8.478;2023-10-09T04:22:14;34.33;;;15.10;;
12112;SDS011;6120;52.250;8.478;2023-10-09T04:24:53;30.63;;;14.00;;
12112;SDS011;6120;52.250;8.478;2023-10-09T04:27:20;30.52;;;13.73;;
12112;SDS011;6120;52.250;8.478;2023-10-09T04:29:53;35.88;;;16.08;;
12112;SDS011;6120;52.250;8.478;2023-10-09T04:32:20;30.92;;;14.98;;
12112;SDS011;6120;52.250;8.478;2023-10-09T04:34:51;35.33;;;16.65;;
12112;SDS011;6120;52.250;8.478;2023-10-09T04:37:43;35.05;;;16.13;;
12112;SDS011;6120;52.250;8.478;2023-10-09T04:40:14;30.80;;;15.50;;
12112;SDS011;6120;52.250;8.478;2023-10-09T04:43:01;28.88;;;14.32;;
12112;SDS011;6120;52.250;8.478;2023-10-09T04:45:38;26.05;;;13.93;;
12112;SDS011;6120;52.250;8.478;2023-10-09T04:48:11;29.02;;;13.77;;
12112;SDS011;6120;52.250;8.478;2023-10-09T04:50:37;25.65;;;13.77;;
12112;SDS011;6120;52.250;8.478;2023-10-09T04:53:33;29.80;;;14.10;;
12112;SDS011;6120;52.250;8.478;2023-10-09T04:56:10;29.40;;;14.50;;
12112;SDS011;6120;52.250;8.478;2023-10-09T04:58:42;25.50;;;13.05;;
12112;SDS011;6120;52.250;8.478;2023-10-09T05:01:10;26.13;;;12.85;;
12112;SDS011;6120;52.250;8.478;2023-10-09T05:03:41;34.95;;;15.60;;
12112;SDS011;6120;52.250;8.478;2023-10-09T05:06:08;28.35;;;13.82;;
12112;SDS011;6120;52.250;8.478;2023-10-09T05:08:48;31.77;;;15.30;;
12112;SDS011;6120;52.250;8.478;2023-10-09T05:11:15;29.47;;;14.43;;
12112;SDS011;6120;52.250;8.478;2023-10-09T05:14:01;26.23;;;13.25;;
12112;SDS011;6120;52.250;8.478;2023-10-09T05:16:40;29.20;;;13.57;;
12112;SDS011;6120;52.250;8.478;2023-10-09T05:19:22;28.10;;;13.68;;
12112;SDS011;6120;52.250;8.478;2023-10-09T05:22:10;31.77;;;14.15;;
12112;SDS011;6120;52.250;8.478;2023-10-09T05:24:57;31.65;;;14.35;;
12112;SDS011;6120;52.250;8.478;2023-10-09T05:27:27;31.23;;;14.35;;
12112;SDS011;6120;52.250;8.478;2023-10-09T05:30:12;30.85;;;15.00;;
12112;SDS011;6120;52.250;8.478;2023-10-09T05:32:54;29.23;;;14.30;;
12112;SDS011;6120;52.250;8.478;2023-10-09T05:35:25;32.40;;;15.50;;
12112;SDS011;6120;52.250;8.478;2023-10-09T05:38:08;32.13;;;16.17;;
12112;SDS011;6120;52.250;8.478;2023-10-09T05:40:50;38.97;;;16.98;;
12112;SDS011;6120;52.250;8.478;2023-10-09T05:43:21;33.85;;;15.82;;
12112;SDS011;6120;52.250;8.478;2023-10-09T05:46:06;33.38;;;15.88;;
12112;SDS011;6120;52.250;8.478;2023-10-09T05:48:34;35.67;;;16.77;;
12112;SDS011;6120;52.250;8.478;2023-10-09T05:51:05;31.33;;;16.73;;
12112;SDS011;6120;52.250;8.478;2023-10-09T05:54:00;32.67;;;15.52;;
12112;SDS011;6120;52.250;8.478;2023-10-09T05:56:45;36.05;;;16.17;;
12112;SDS011;6120;52.250;8.478;2023-10-09T05:59:31;36.35;;;16.00;;
12112;SDS011;6120;52.250;8.478;2023-10-09T06:02:18;33.47;;;15.73;;
12112;SDS011;6120;52.250;8.478;2023-10-09T06:05:13;47.92;;;18.80;;
12112;SDS011;6120;52.250;8.478;2023-10-09T06:08:00;34.30;;;16.38;;
12112;SDS011;6120;52.250;8.478;2023-10-09T06:10:39;35.72;;;16.65;;
12112;SDS011;6120;52.250;8.478;2023-10-09T06:13:08;36.88;;;17.55;;
12112;SDS011;6120;52.250;8.478;2023-10-09T06:15:55;26.10;;;13.70;;
12112;SDS011;6120;52.250;8.478;2023-10-09T06:18:36;32.25;;;15.55;;
12112;SDS011;6120;52.250;8.478;2023-10-09T06:21:09;37.72;;;15.93;;
12112;SDS011;6120;52.250;8.478;2023-10-09T06:23:56;35.42;;;15.55;;
12112;SDS011;6120;52.250;8.478;2023-10-09T06:26:42;34.15;;;16.02;;
12112;SDS011;6120;52.250;8.478;2023-10-09T06:29:27;31.85;;;15.23;;
12112;SDS011;6120;52.250;8.478;2023-10-09T06:32:08;34.80;;;16.13;;
12112;SDS011;6120;52.250;8.478;2023-10-09T06:34:51;37.20;;;16.50;;
12112;SDS011;6120;52.250;8.478;2023-10-09T06:37:18;39.38;;;17.83;;
12112;SDS011;6120;52.250;8.478;2023-10-09T06:40:01;32.03;;;16.40;;
12112;SDS011;6120;52.250;8.478;2023-10-09T06:42:46;29.67;;;14.93;;
12112;SDS011;6120;52.250;8.478;2023-10-09T06:45:17;34.63;;;15.48;;
12112;SDS011;6120;52.250;8.478;2023-10-09T06:47:47;31.05;;;14.88;;
12112;SDS011;6120;52.250;8.478;2023-10-09T06:50:53;35.20;;;15.65;;
12112;SDS011;6120;52.250;8.478;2023-10-09T06:53:30;28.27;;;13.65;;
12112;SDS011;6120;52.250;8.478;2023-10-09T06:56:15;32.45;;;15.85;;
12112;SDS011;6120;52.250;8.478;2023-10-09T07:01:30;32.40;;;15.80;;
12112;SDS011;6120;52.250;8.478;2023-10-09T07:04:06;27.02;;;14.57;;
12112;SDS011;6120;52.250;8.478;2023-10-09T07:06:50;33.95;;;16.55;;
12112;SDS011;6120;52.250;8.478;2023-10-09T07:09:23;30.83;;;15.52;;
12112;SDS011;6120;52.250;8.478;2023-10-09T07:11:50;31.13;;;15.73;;
12112;SDS011;6120;52.250;8.478;2023-10-09T07:14:18;33.50;;;15.13;;
12112;SDS011;6120;52.250;8.478;2023-10-09T07:19:27;37.60;;;17.38;;
12112;SDS011;6120;52.250;8.478;2023-10-09T07:22:00;30.45;;;14.65;;
12112;SDS011;6120;52.250;8.478;2023-10-09T07:24:30;33.53;;;16.55;;
12112;SDS011;6120;52.250;8.478;2023-10-09T07:27:25;27.25;;;15.18;;
12112;SDS011;6120;52.250;8.478;2023-10-09T07:30:13;35.53;;;15.95;;
12112;SDS011;6120;52.250;8.478;2023-10-09T07:35:42;33.05;;;17.23;;
12112;SDS011;6120;52.250;8.478;2023-10-09T07:38:17;46.30;;;20.58;;
12112;SDS011;6120;52.250;8.478;2023-10-09T07:40:55;33.88;;;17.20;;
12112;SDS011;6120;52.250;8.478;2023-10-09T07:43:27;48.65;;;20.70;;
12112;SDS011;6120;52.250;8.478;2023-10-09T07:46:02;49.92;;;21.95;;
12112;SDS011;6120;52.250;8.478;2023-10-09T07:48:48;43.33;;;20.05;;
12112;SDS011;6120;52.250;8.478;2023-10-09T07:51:24;47.78;;;22.23;;
12112;SDS011;6120;52.250;8.478;2023-10-09T07:53:58;50.75;;;22.95;;
12112;SDS011;6120;52.250;8.478;2023-10-09T07:56:38;56.58;;;23.08;;
12112;SDS011;6120;52.250;8.478;2023-10-09T07:59:08;52.97;;;22.83;;
12112;SDS011;6120;52.250;8.478;2023-10-09T08:01:41;56.13;;;23.83;;
12112;SDS011;6120;52.250;8.478;2023-10-09T08:04:26;59.72;;;24.30;;
12112;SDS011;6120;52.250;8.478;2023-10-09T08:07:06;42.10;;;20.02;;
12112;SDS011;6120;52.250;8.478;2023-10-09T08:10:05;47.67;;;22.92;;
12112;SDS011;6120;52.250;8.478;2023-10-09T08:12:40;58.22;;;23.77;;
12112;SDS011;6120;52.250;8.478;2023-10-09T08:15:11;49.25;;;22.77;;
12112;SDS011;6120;52.250;8.478;2023-10-09T08:17:51;43.22;;;21.17;;
12112;SDS011;6120;52.250;8.478;2023-10-09T08:20:30;48.35;;;20.20;;
12112;SDS011;6120;52.250;8.478;2023-10-09T08:23:17;41.97;;;20.33;;
12112;SDS011;6120;52.250;8.478;2023-10-09T08:28:39;47.42;;;23.02;;
12112;SDS011;6120;52.250;8.478;2023-10-09T08:31:09;48.95;;;21.13;;
12112;SDS011;6120;52.250;8.478;2023-10-09T08:33:57;39.50;;;19.35;;
12112;SDS011;6120;52.250;8.478;2023-10-09T08:36:27;41.45;;;20.95;;
12112;SDS011;6120;52.250;8.478;2023-10-09T08:38:58;46.45;;;22.40;;
12112;SDS011;6120;52.250;8.478;2023-10-09T08:41:27;47.83;;;24.27;;
12112;SDS011;6120;52.250;8.478;2023-10-09T08:43:57;51.05;;;24.45;;
12112;SDS011;6120;52.250;8.478;2023-10-09T08:46:24;47.00;;;23.75;;
12112;SDS011;6120;52.250;8.478;2023-10-09T08:48:56;37.55;;;19.90;;
12112;SDS011;6120;52.250;8.478;2023-10-09T08:51:32;45.40;;;22.35;;
12112;SDS011;6120;52.250;8.478;2023-10-09T08:54:02;46.63;;;23.02;;
12112;SDS011;6120;52.250;8.478;2023-10-09T08:56:31;47.47;;;24.25;;
12112;SDS011;6120;52.250;8.478;2023-10-09T08:58:59;51.45;;;25.45;;
12112;SDS011;6120;52.250;8.478;2023-10-09T09:01:28;54.40;;;25.75;;
12112;SDS011;6120;52.250;8.478;2023-10-09T09:03:59;52.22;;;25.65;;
12112;SDS011;6120;52.250;8.478;2023-10-09T09:06:27;51.60;;;24.85;;
12112;SDS011;6120;52.250;8.478;2023-10-09T09:09:12;52.75;;;24.60;;
12112;SDS011;6120;52.250;8.478;2023-10-09T09:11:42;55.83;;;25.90;;
12112;SDS011;6120;52.250;8.478;2023-10-09T09:14:15;52.67;;;25.30;;
12112;SDS011;6120;52.250;8.478;2023-10-09T09:16:45;53.85;;;26.70;;
12112;SDS011;6120;52.250;8.478;2023-10-09T09:19:15;50.20;;;27.13;;
12112;SDS011;6120;52.250;8.478;2023-10-09T09:21:49;49.70;;;26.38;;
12112;SDS011;6120;52.250;8.478;2023-10-09T09:24:21;54.13;;;26.58;;
12112;SDS011;6120;52.250;8.478;2023-10-09T09:26:56;53.97;;;26.77;;
12112;SDS011;6120;52.250;8.478;2023-10-09T09:32:08;53.05;;;26.40;;
12112;SDS011;6120;52.250;8.478;2023-10-09T09:34:50;55.88;;;28.15;;
12112;SDS011;6120;52.250;8.478;2023-10-09T09:37:22;55.72;;;26.92;;
12112;SDS011;6120;52.250;8.478;2023-10-09T09:40:13;45.30;;;24.13;;
12112;SDS011;6120;52.250;8.478;2023-10-09T09:42:59;51.70;;;25.90;;
12112;SDS011;6120;52.250;8.478;2023-10-09T09:48:05;55.35;;;28.48;;
12112;SDS011;6120;52.250;8.478;2023-10-09T09:50:33;53.22;;;27.65;;
12112;SDS011;6120;52.250;8.478;2023-10-09T09:53:03;56.55;;;28.73;;
12112;SDS011;6120;52.250;8.478;2023-10-09T09:55:34;57.45;;;28.48;;
12112;SDS011;6120;52.250;8.478;2023-10-09T09:58:02;50.07;;;25.47;;
12112;SDS011;6120;52.250;8.478;2023-10-09T10:00:33;52.85;;;27.35;;
12112;SDS011;6120;52.250;8.478;2023-10-09T10:03:11;56.65;;;28.60;;
12112;SDS011;6120;52.250;8.478;2023-10-09T10:05:48;49.65;;;27.23;;
12112;SDS011;6120;52.250;8.478;2023-10-09T10:08:17;54.85;;;28.13;;
12112;SDS011;6120;52.250;8.478;2023-10-09T10:10:47;52.78;;;28.60;;
12112;SDS011;6120;52.250;8.478;2023-10-09T10:13:16;48.53;;;26.00;;
12112;SDS011;6120;52.250;8.478;2023-10-09T10:15:57;51.92;;;26.25;;
12112;SDS011;6120;52.250;8.478;2023-10-09T10:18:32;55.08;;;29.92;;
12112;SDS011;6120;52.250;8.478;2023-10-09T10:21:09;55.33;;;29.20;;
12112;SDS011;6120;52.250;8.478;2023-10-09T10:23:44;55.63;;;30.33;;
12112;SDS011;6120;52.250;8.478;2023-10-09T10:26:18;50.53;;;29.75;;
12112;SDS011;6120;52.250;8.478;2023-10-09T10:31:57;60.83;;;31.85;;
12112;SDS011;6120;52.250;8.478;2023-10-09T10:34:52;52.63;;;30.70;;
12112;SDS011;6120;52.250;8.478;2023-10-09T10:40:05;55.28;;;27.52;;
12112;SDS011;6120;52.250;8.478;2023-10-09T10:42:48;52.25;;;29.80;;
12112;SDS011;6120;52.250;8.478;2023-10-09T10:45:36;57.90;;;31.15;;
12112;SDS011;6120;52.250;8.478;2023-10-09T10:48:05;63.42;;;31.73;;
12112;SDS011;6120;52.250;8.478;2023-10-09T10:50:36;70.45;;;34.08;;
12112;SDS011;6120;52.250;8.478;2023-10-09T10:53:07;73.60;;;34.95;;
12112;SDS011;6120;52.250;8.478;2023-10-09T10:55:55;64.15;;;32.92;;
12112;SDS011;6120;52.250;8.478;2023-10-09T10:58:52;75.25;;;34.20;;
12112;SDS011;6120;52.250;8.478;2023-10-09T11:01:32;66.32;;;32.83;;
12112;SDS011;6120;52.250;8.478;2023-10-09T11:04:18;63.40;;;32.67;;
12112;SDS011;6120;52.250;8.478;2023-10-09T11:06:57;56.45;;;30.80;;
12112;SDS011;6120;52.250;8.478;2023-10-09T11:09:46;62.10;;;32.22;;
12112;SDS011;6120;52.250;8.478;2023-10-09T11:12:45;60.30;;;29.20;;
12112;SDS011;6120;52.250;8.478;2023-10-09T11:15:34;58.17;;;30.00;;
12112;SDS011;6120;52.250;8.478;2023-10-09T11:18:11;57.35;;;30.35;;
12112;SDS011;6120;52.250;8.478;2023-10-09T11:20:49;51.72;;;27.17;;
12112;SDS011;6120;52.250;8.478;2023-10-09T11:23:41;47.33;;;26.27;;
12112;SDS011;6120;52.250;8.478;2023-10-09T11:26:25;44.35;;;24.45;;
12112;SDS011;6120;52.250;8.478;2023-10-09T11:29:13;47.88;;;26.05;;
12112;SDS011;6120;52.250;8.478;2023-10-09T11:32:06;48.60;;;26.90;;
12112;SDS011;6120;52.250;8.478;2023-10-09T11:34:41;42.42;;;24.67;;
12112;SDS011;6120;52.250;8.478;2023-10-09T11:37:12;48.95;;;28.25;;
12112;SDS011;6120;52.250;8.478;2023-10-09T11:39:52;50.42;;;26.48;;
12112;SDS011;6120;52.250;8.478;2023-10-09T11:42:24;45.40;;;26.15;;
12112;SDS011;6120;52.250;8.478;2023-10-09T11:45:18;45.45;;;25.48;;
12112;SDS011;6120;52.250;8.478;2023-10-09T11:47:52;45.22;;;25.52;;
12112;SDS011;6120;52.250;8.478;2023-10-09T11:53:51;42.97;;;25.15;;
12112;SDS011;6120;52.250;8.478;2023-10-09T11:56:24;54.38;;;29.38;;
12112;SDS011;6120;52.250;8.478;2023-10-09T11:58:56;52.10;;;28.48;;
12112;SDS011;6120;52.250;8.478;2023-10-09T12:01:38;59.13;;;30.88;;
12112;SDS011;6120;52.250;8.478;2023-10-09T12:04:15;57.15;;;30.15;;
12112;SDS011;6120;52.250;8.478;2023-10-09T12:06:44;51.05;;;29.95;;
12112;SDS011;6120;52.250;8.478;2023-10-09T12:09:28;53.72;;;29.63;;
12112;SDS011;6120;52.250;8.478;2023-10-09T12:12:02;44.13;;;25.60;;
12112;SDS011;6120;52.250;8.478;2023-10-09T12:14:30;55.53;;;28.42;;
12112;SDS011;6120;52.250;8.478;2023-10-09T12:17:00;49.67;;;26.85;;
12112;SDS011;6120;52.250;8.478;2023-10-09T12:20:04;56.20;;;29.42;;
12112;SDS011;6120;52.250;8.478;2023-10-09T12:22:41;47.45;;;28.33;;
12112;SDS011;6120;52.250;8.478;2023-10-09T12:25:12;57.60;;;29.27;;
12112;SDS011;6120;52.250;8.478;2023-10-09T12:27:40;53.08;;;29.60;;
12112;SDS011;6120;52.250;8.478;2023-10-09T12:30:10;58.70;;;28.27;;
12112;SDS011;6120;52.250;8.478;2023-10-09T12:32:37;51.92;;;27.90;;
12112;SDS011;6120;52.250;8.478;2023-10-09T12:35:06;58.50;;;28.85;;
12112;SDS011;6120;52.250;8.478;2023-10-09T12:37:43;47.08;;;26.50;;
12112;SDS011;6120;52.250;8.478;2023-10-09T12:40:10;49.60;;;27.40;;
12112;SDS011;6120;52.250;8.478;2023-10-09T12:42:37;52.65;;;27.25;;
12112;SDS011;6120;52.250;8.478;2023-10-09T12:45:04;46.15;;;24.48;;
12112;SDS011;6120;52.250;8.478;2023-10-09T12:47:35;47.40;;;25.90;;
12112;SDS011;6120;52.250;8.478;2023-10-09T12:50:05;41.20;;;22.27;;
12112;SDS011;6120;52.250;8.478;2023-10-09T12:52:40;47.33;;;23.70;;
12112;SDS011;6120;52.250;8.478;2023-10-09T12:55:15;38.35;;;21.05;;
12112;SDS011;6120;52.250;8.478;2023-10-09T12:57:47;33.00;;;21.00;;
12112;SDS011;6120;52.250;8.478;2023-10-09T13:00:17;35.75;;;19.95;;
12112;SDS011;6120;52.250;8.478;2023-10-09T13:02:52;44.72;;;22.38;;
12112;SDS011;6120;52.250;8.478;2023-10-09T13:05:21;45.63;;;21.33;;
12112;SDS011;6120;52.250;8.478;2023-10-09T13:07:53;32.90;;;19.02;;
12112;SDS011;6120;52.250;8.478;2023-10-09T13:10:25;36.58;;;19.63;;
12112;SDS011;6120;52.250;8.478;2023-10-09T13:12:57;35.55;;;19.85;;
12112;SDS011;6120;52.250;8.478;2023-10-09T13:15:24;38.60;;;20.23;;
12112;SDS011;6120;52.250;8.478;2023-10-09T13:17:54;31.77;;;16.95;;
12112;SDS011;6120;52.250;8.478;2023-10-09T13:20:21;34.85;;;19.77;;
12112;SDS011;6120;52.250;8.478;2023-10-09T13:22:48;35.35;;;19.30;;
12112;SDS011;6120;52.250;8.478;2023-10-09T13:25:15;36.15;;;19.70;;
12112;SDS011;6120;52.250;8.478;2023-10-09T13:27:59;37.33;;;20.52;;
12112;SDS011;6120;52.250;8.478;2023-10-09T13:30:30;34.53;;;19.73;;
12112;SDS011;6120;52.250;8.478;2023-10-09T13:33:06;35.75;;;19.38;;
12112;SDS011;6120;52.250;8.478;2023-10-09T13:35:33;31.70;;;17.88;;
12112;SDS011;6120;52.250;8.478;2023-10-09T13:38:10;32.40;;;18.48;;
12112;SDS011;6120;52.250;8.478;2023-10-09T13:40:37;35.70;;;19.02;;
12112;SDS011;6120;52.250;8.478;2023-10-09T13:43:04;34.63;;;16.80;;
12112;SDS011;6120;52.250;8.478;2023-10-09T13:45:37;30.67;;;17.75;;
12112;SDS011;6120;52.250;8.478;2023-10-09T13:48:05;26.17;;;15.10;;
12112;SDS011;6120;52.250;8.478;2023-10-09T13:50:32;30.08;;;15.32;;
12112;SDS011;6120;52.250;8.478;2023-10-09T13:52:59;29.83;;;16.23;;
12112;SDS011;6120;52.250;8.478;2023-10-09T13:55:26;27.05;;;15.10;;
12112;SDS011;6120;52.250;8.478;2023-10-09T13:58:09;29.25;;;14.57;;
12112;SDS011;6120;52.250;8.478;2023-10-09T14:00:44;27.73;;;13.10;;
12112;SDS011;6120;52.250;8.478;2023-10-09T14:03:12;31.05;;;14.30;;
12112;SDS011;6120;52.250;8.478;2023-10-09T14:05:40;20.42;;;11.65;;
12112;SDS011;6120;52.250;8.478;2023-10-09T14:08:21;24.52;;;12.00;;
12112;SDS011;6120;52.250;8.478;2023-10-09T14:10:52;26.60;;;13.57;;
12112;SDS011;6120;52.250;8.478;2023-10-09T14:13:21;24.42;;;13.38;;
12112;SDS011;6120;52.250;8.478;2023-10-09T14:15:56;25.00;;;13.15;;
12112;SDS011;6120;52.250;8.478;2023-10-09T14:18:24;24.50;;;13.15;;
12112;SDS011;6120;52.250;8.478;2023-10-09T14:20:56;26.73;;;14.98;;
12112;SDS011;6120;52.250;8.478;2023-10-09T14:23:23;20.42;;;13.13;;
12112;SDS011;6120;52.250;8.478;2023-10-09T14:25:57;25.58;;;13.88;;
12112;SDS011;6120;52.250;8.478;2023-10-09T14:28:28;24.75;;;13.88;;
12112;SDS011;6120;52.250;8.478;2023-10-09T14:30:55;32.72;;;13.93;;
12112;SDS011;6120;52.250;8.478;2023-10-09T14:33:31;23.27;;;13.07;;
12112;SDS011;6120;52.250;8.478;2023-10-09T14:36:03;25.58;;;13.45;;
12112;SDS011;6120;52.250;8.478;2023-10-09T14:38:32;20.77;;;12.82;;
12112;SDS011;6120;52.250;8.478;2023-10-09T14:41:05;20.25;;;11.77;;
12112;SDS011;6120;52.250;8.478;2023-10-09T14:43:33;23.85;;;12.30;;
12112;SDS011;6120;52.250;8.478;2023-10-09T14:46:00;23.30;;;11.75;;
12112;SDS011;6120;52.250;8.478;2023-10-09T14:48:27;21.65;;;10.90;;
12112;SDS011;6120;52.250;8.478;2023-10-09T14:50:55;18.45;;;10.38;;
12112;SDS011;6120;52.250;8.478;2023-10-09T14:53:31;23.63;;;10.57;;
12112;SDS011;6120;52.250;8.478;2023-10-09T14:56:00;20.88;;;10.10;;
12112;SDS011;6120;52.250;8.478;2023-10-09T14:58:29;21.23;;;10.27;;
12112;SDS011;6120;52.250;8.478;2023-10-09T15:01:06;17.42;;;8.95;;
12112;SDS011;6120;52.250;8.478;2023-10-09T15:03:41;14.18;;;8.57;;
12112;SDS011;6120;52.250;8.478;2023-10-09T15:06:09;20.25;;;8.10;;
12112;SDS011;6120;52.250;8.478;2023-10-09T15:08:37;17.85;;;8.55;;
12112;SDS011;6120;52.250;8.478;2023-10-09T15:11:04;20.98;;;8.77;;
12112;SDS011;6120;52.250;8.478;2023-10-09T15:13:32;20.98;;;9.55;;
12112;SDS011;6120;52.250;8.478;2023-10-09T15:15:59;18.73;;;8.88;;
12112;SDS011;6120;52.250;8.478;2023-10-09T15:18:28;14.30;;;7.20;;
12112;SDS011;6120;52.250;8.478;2023-10-09T15:20:59;16.88;;;7.88;;
12112;SDS011;6120;52.250;8.478;2023-10-09T15:23:26;16.98;;;7.88;;
12112;SDS011;6120;52.250;8.478;2023-10-09T15:25:53;19.60;;;8.27;;
12112;SDS011;6120;52.250;8.478;2023-10-09T15:28:21;18.17;;;8.30;;
12112;SDS011;6120;52.250;8.478;2023-10-09T15:33:15;15.95;;;7.65;;
12112;SDS011;6120;52.250;8.478;2023-10-09T15:35:46;16.67;;;8.02;;
12112;SDS011;6120;52.250;8.478;2023-10-09T15:38:13;23.38;;;8.95;;
12112;SDS011;6120;52.250;8.478;2023-10-09T15:40:40;16.67;;;7.43;;
12112;SDS011;6120;52.250;8.478;2023-10-09T15:43:10;15.93;;;8.05;;
12112;SDS011;6120;52.250;8.478;2023-10-09T15:45:43;12.48;;;7.03;;
12112;SDS011;6120;52.250;8.478;2023-10-09T15:48:16;13.18;;;7.13;;
12112;SDS011;6120;52.250;8.478;2023-10-09T15:50:48;17.63;;;8.55;;
12112;SDS011;6120;52.250;8.478;2023-10-09T15:53:15;13.82;;;7.43;;